Decoded Metar for KLFT (LAFAYETTE in LA, USA) (IATA:LFT) | Meteo·Mobile Aviation Weather
aviador You're here:

KLFT Decoded Metar

LAFAYETTE in LA, USA
Report Time2019-04-18 20:17:00
UTC Time2019-04-18 20:24:00
Flight Rules mvfr MVFR
WindVRB at 03 kt
Visibility4828 m
Phenomena:Light Thuderstorm Rain
Mist
Clouds:Few 006 Hf
Broken 028 Hf
Overcast 070 Hf
Expected CloudBase > 400 ft AGL from Temp-Dew spread
Ceiling2,800 ft
Temp18°C (ISA +3)
Dew Point17°C (94% RH)
QNH1004 hPa
Density Alt958 ft
Elevation36 ft
Report Wrong Elevation
Raw Report
KLFT 182017Z VRB03KT 3SM -TSRA BR FEW006 BKN028 OVC070 18/17 A2965
RMK AO2 LTG DSNT ALQDS P0017 T01780172=

Extra information for KLFT:More info

Metar Taf Metar & Taf Last 4 Metars F.Rules Stats Wind Profile Meteogram Temp Stats Airport Information Weather charts Add Link Nearby VenuesMetar ALERT Operation Metar Decoded Social comments

AIRNAV info for KLFT